sensor_id;sensor_type;location;lat;lon;timestamp;temperature;humidity
9215;DHT22;4642;51.364;6.788;2022-11-11T00:01:12;9.40;99.90
9215;DHT22;4642;51.364;6.788;2022-11-11T00:03:38;9.40;99.90
9215;DHT22;4642;51.364;6.788;2022-11-11T00:06:07;9.40;99.90
9215;DHT22;4642;51.364;6.788;2022-11-11T00:08:33;9.30;99.90
9215;DHT22;4642;51.364;6.788;2022-11-11T00:11:03;9.40;99.90
9215;DHT22;4642;51.364;6.788;2022-11-11T00:13:30;9.30;99.90
9215;DHT22;4642;51.364;6.788;2022-11-11T00:15:55;9.30;99.90
9215;DHT22;4642;51.364;6.788;2022-11-11T00:18:21;9.30;99.90
9215;DHT22;4642;51.364;6.788;2022-11-11T00:21:12;9.30;99.90
9215;DHT22;4642;51.364;6.788;2022-11-11T00:23:56;9.20;99.90
9215;DHT22;4642;51.364;6.788;2022-11-11T00:26:40;9.20;99.90
9215;DHT22;4642;51.364;6.788;2022-11-11T00:29:06;9.20;99.90
9215;DHT22;4642;51.364;6.788;2022-11-11T00:31:34;9.20;99.90
9215;DHT22;4642;51.364;6.788;2022-11-11T00:33:59;9.10;99.90
9215;DHT22;4642;51.364;6.788;2022-11-11T00:36:25;9.10;99.90
9215;DHT22;4642;51.364;6.788;2022-11-11T00:38:50;9.10;99.90
9215;DHT22;4642;51.364;6.788;2022-11-11T00:41:21;9.10;99.90
9215;DHT22;4642;51.364;6.788;2022-11-11T00:43:47;9.10;99.90
9215;DHT22;4642;51.364;6.788;2022-11-11T00:46:14;9.10;99.90
9215;DHT22;4642;51.364;6.788;2022-11-11T00:48:58;9.00;99.90
9215;DHT22;4642;51.364;6.788;2022-11-11T00:51:42;9.00;99.90
9215;DHT22;4642;51.364;6.788;2022-11-11T00:54:08;9.00;99.90
9215;DHT22;4642;51.364;6.788;2022-11-11T00:56:34;9.00;99.90
9215;DHT22;4642;51.364;6.788;2022-11-11T00:59:07;9.00;99.90
9215;DHT22;4642;51.364;6.788;2022-11-11T01:01:34;9.00;99.90
9215;DHT22;4642;51.364;6.788;2022-11-11T01:04:02;8.90;99.90
9215;DHT22;4642;51.364;6.788;2022-11-11T01:06:27;8.90;99.90
9215;DHT22;4642;51.364;6.788;2022-11-11T01:08:53;8.90;99.90
9215;DHT22;4642;51.364;6.788;2022-11-11T01:11:23;8.90;99.90
9215;DHT22;4642;51.364;6.788;2022-11-11T01:13:49;8.90;99.90
9215;DHT22;4642;51.364;6.788;2022-11-11T01:16:18;8.80;99.90
9215;DHT22;4642;51.364;6.788;2022-11-11T01:18:43;8.80;99.90
9215;DHT22;4642;51.364;6.788;2022-11-11T01:21:15;8.80;99.90
9215;DHT22;4642;51.364;6.788;2022-11-11T01:23:41;8.80;99.90
9215;DHT22;4642;51.364;6.788;2022-11-11T01:26:18;8.80;99.90
9215;DHT22;4642;51.364;6.788;2022-11-11T01:28:47;8.80;99.90
9215;DHT22;4642;51.364;6.788;2022-11-11T01:31:14;8.80;99.90
9215;DHT22;4642;51.364;6.788;2022-11-11T01:33:40;8.80;99.90
9215;DHT22;4642;51.364;6.788;2022-11-11T01:36:10;8.70;99.90
9215;DHT22;4642;51.364;6.788;2022-11-11T01:38:37;8.70;99.90
9215;DHT22;4642;51.364;6.788;2022-11-11T01:41:04;8.70;99.90
9215;DHT22;4642;51.364;6.788;2022-11-11T01:43:50;8.70;99.90
9215;DHT22;4642;51.364;6.788;2022-11-11T01:47:04;8.70;99.90
9215;DHT22;4642;51.364;6.788;2022-11-11T01:59:45;8.60;99.90
9215;DHT22;4642;51.364;6.788;2022-11-11T02:02:18;8.50;99.90
9215;DHT22;4642;51.364;6.788;2022-11-11T02:04:46;8.60;99.90
9215;DHT22;4642;51.364;6.788;2022-11-11T02:07:33;8.50;99.90
9215;DHT22;4642;51.364;6.788;2022-11-11T02:10:01;8.60;99.90
9215;DHT22;4642;51.364;6.788;2022-11-11T02:12:27;8.50;99.90
9215;DHT22;4642;51.364;6.788;2022-11-11T02:15:11;8.50;99.90
9215;DHT22;4642;51.364;6.788;2022-11-11T02:17:38;8.50;99.90
9215;DHT22;4642;51.364;6.788;2022-11-11T02:20:04;8.50;99.90
9215;DHT22;4642;51.364;6.788;2022-11-11T02:25:24;8.50;99.90
9215;DHT22;4642;51.364;6.788;2022-11-11T02:27:53;8.50;99.90
9215;DHT22;4642;51.364;6.788;2022-11-11T02:30:21;8.50;99.90
9215;DHT22;4642;51.364;6.788;2022-11-11T02:32:49;8.50;99.90
9215;DHT22;4642;51.364;6.788;2022-11-11T02:35:21;8.50;99.90
9215;DHT22;4642;51.364;6.788;2022-11-11T02:37:51;8.50;99.90
9215;DHT22;4642;51.364;6.788;2022-11-11T02:40:20;8.50;99.90
9215;DHT22;4642;51.364;6.788;2022-11-11T02:42:47;8.40;99.90
9215;DHT22;4642;51.364;6.788;2022-11-11T02:45:13;8.50;99.90
9215;DHT22;4642;51.364;6.788;2022-11-11T02:47:38;8.40;99.90
9215;DHT22;4642;51.364;6.788;2022-11-11T02:50:04;8.40;99.90
9215;DHT22;4642;51.364;6.788;2022-11-11T02:52:30;8.40;99.90
9215;DHT22;4642;51.364;6.788;2022-11-11T02:54:55;8.40;99.90
9215;DHT22;4642;51.364;6.788;2022-11-11T02:57:21;8.40;99.90
9215;DHT22;4642;51.364;6.788;2022-11-11T02:59:47;8.40;99.90
9215;DHT22;4642;51.364;6.788;2022-11-11T03:02:12;8.30;99.90
9215;DHT22;4642;51.364;6.788;2022-11-11T03:04:38;8.30;99.90
9215;DHT22;4642;51.364;6.788;2022-11-11T03:07:04;8.20;99.90
9215;DHT22;4642;51.364;6.788;2022-11-11T03:09:30;8.20;99.90
9215;DHT22;4642;51.364;6.788;2022-11-11T03:11:56;8.10;99.90
9215;DHT22;4642;51.364;6.788;2022-11-11T03:14:21;8.10;99.90
9215;DHT22;4642;51.364;6.788;2022-11-11T03:16:47;8.00;99.90
9215;DHT22;4642;51.364;6.788;2022-11-11T03:19:31;8.00;99.90
9215;DHT22;4642;51.364;6.788;2022-11-11T03:21:57;8.00;99.90
9215;DHT22;4642;51.364;6.788;2022-11-11T03:24:23;8.00;99.90
9215;DHT22;4642;51.364;6.788;2022-11-11T03:26:48;8.00;99.90
9215;DHT22;4642;51.364;6.788;2022-11-11T03:29:14;8.00;99.90
9215;DHT22;4642;51.364;6.788;2022-11-11T03:31:39;8.00;99.90
9215;DHT22;4642;51.364;6.788;2022-11-11T03:34:05;7.90;99.90
9215;DHT22;4642;51.364;6.788;2022-11-11T03:36:44;7.90;99.90
9215;DHT22;4642;51.364;6.788;2022-11-11T03:39:28;7.90;99.90
9215;DHT22;4642;51.364;6.788;2022-11-11T03:41:55;7.80;99.90
9215;DHT22;4642;51.364;6.788;2022-11-11T03:44:20;7.80;99.90
9215;DHT22;4642;51.364;6.788;2022-11-11T03:46:46;7.90;99.90
9215;DHT22;4642;51.364;6.788;2022-11-11T03:49:11;7.80;99.90
9215;DHT22;4642;51.364;6.788;2022-11-11T03:51:37;7.80;99.90
9215;DHT22;4642;51.364;6.788;2022-11-11T03:54:02;7.80;99.90
9215;DHT22;4642;51.364;6.788;2022-11-11T03:56:28;7.80;99.90
9215;DHT22;4642;51.364;6.788;2022-11-11T03:58:53;7.80;99.90
9215;DHT22;4642;51.364;6.788;2022-11-11T04:01:19;7.80;99.90
9215;DHT22;4642;51.364;6.788;2022-11-11T04:04:03;7.80;99.90
9215;DHT22;4642;51.364;6.788;2022-11-11T04:06:47;7.80;99.90
9215;DHT22;4642;51.364;6.788;2022-11-11T04:09:31;7.80;99.90
9215;DHT22;4642;51.364;6.788;2022-11-11T04:12:15;7.90;99.90
9215;DHT22;4642;51.364;6.788;2022-11-11T04:14:41;7.80;99.90
9215;DHT22;4642;51.364;6.788;2022-11-11T04:17:25;7.80;99.90
9215;DHT22;4642;51.364;6.788;2022-11-11T04:19:50;7.80;99.90
9215;DHT22;4642;51.364;6.788;2022-11-11T04:22:41;7.80;99.90
9215;DHT22;4642;51.364;6.788;2022-11-11T04:25:07;7.80;99.90
9215;DHT22;4642;51.364;6.788;2022-11-11T04:27:55;7.70;99.90
9215;DHT22;4642;51.364;6.788;2022-11-11T04:30:41;7.80;99.90
9215;DHT22;4642;51.364;6.788;2022-11-11T04:33:08;7.70;99.90
9215;DHT22;4642;51.364;6.788;2022-11-11T04:35:33;7.70;99.90
9215;DHT22;4642;51.364;6.788;2022-11-11T04:37:59;7.70;99.90
9215;DHT22;4642;51.364;6.788;2022-11-11T04:40:43;7.50;99.90
9215;DHT22;4642;51.364;6.788;2022-11-11T04:43:28;7.70;99.90
9215;DHT22;4642;51.364;6.788;2022-11-11T04:45:57;7.60;99.90
9215;DHT22;4642;51.364;6.788;2022-11-11T04:48:23;7.70;99.90
9215;DHT22;4642;51.364;6.788;2022-11-11T04:50:49;7.70;99.90
9215;DHT22;4642;51.364;6.788;2022-11-11T04:53:14;7.60;99.90
9215;DHT22;4642;51.364;6.788;2022-11-11T04:55:41;7.60;99.90
9215;DHT22;4642;51.364;6.788;2022-11-11T04:58:28;7.70;99.90
9215;DHT22;4642;51.364;6.788;2022-11-11T05:00:54;7.60;99.90
9215;DHT22;4642;51.364;6.788;2022-11-11T05:03:20;7.60;99.90
9215;DHT22;4642;51.364;6.788;2022-11-11T05:05:56;8.30;99.90
9215;DHT22;4642;51.364;6.788;2022-11-11T05:08:46;7.70;99.90
9215;DHT22;4642;51.364;6.788;2022-11-11T05:11:33;7.60;99.90
9215;DHT22;4642;51.364;6.788;2022-11-11T05:14:04;7.70;99.90
9215;DHT22;4642;51.364;6.788;2022-11-11T05:16:54;7.60;99.90
9215;DHT22;4642;51.364;6.788;2022-11-11T05:19:39;7.60;99.90
9215;DHT22;4642;51.364;6.788;2022-11-11T05:22:28;7.70;99.90
9215;DHT22;4642;51.364;6.788;2022-11-11T05:24:55;7.70;99.90
9215;DHT22;4642;51.364;6.788;2022-11-11T05:27:39;7.70;99.90
9215;DHT22;4642;51.364;6.788;2022-11-11T05:30:06;7.90;99.90
9215;DHT22;4642;51.364;6.788;2022-11-11T05:32:32;7.70;99.90
9215;DHT22;4642;51.364;6.788;2022-11-11T05:34:58;7.70;99.90
9215;DHT22;4642;51.364;6.788;2022-11-11T05:37:23;7.70;99.90
9215;DHT22;4642;51.364;6.788;2022-11-11T05:39:49;7.70;99.90
9215;DHT22;4642;51.364;6.788;2022-11-11T05:42:14;7.80;99.90
9215;DHT22;4642;51.364;6.788;2022-11-11T05:44:40;7.70;99.90
9215;DHT22;4642;51.364;6.788;2022-11-11T05:47:06;8.10;99.90
9215;DHT22;4642;51.364;6.788;2022-11-11T05:49:32;7.70;99.90
9215;DHT22;4642;51.364;6.788;2022-11-11T05:51:58;7.80;99.90
9215;DHT22;4642;51.364;6.788;2022-11-11T05:54:23;7.80;99.90
9215;DHT22;4642;51.364;6.788;2022-11-11T05:56:49;7.80;99.90
9215;DHT22;4642;51.364;6.788;2022-11-11T05:59:15;7.80;99.90
9215;DHT22;4642;51.364;6.788;2022-11-11T06:01:41;8.00;99.90
9215;DHT22;4642;51.364;6.788;2022-11-11T06:04:07;7.80;99.90
9215;DHT22;4642;51.364;6.788;2022-11-11T06:06:33;7.90;99.90
9215;DHT22;4642;51.364;6.788;2022-11-11T06:08:59;7.80;99.90
9215;DHT22;4642;51.364;6.788;2022-11-11T06:11:25;7.80;99.90
9215;DHT22;4642;51.364;6.788;2022-11-11T06:13:52;7.80;99.90
9215;DHT22;4642;51.364;6.788;2022-11-11T06:16:18;7.80;99.90
9215;DHT22;4642;51.364;6.788;2022-11-11T06:18:44;7.80;99.90
9215;DHT22;4642;51.364;6.788;2022-11-11T06:21:09;7.80;99.90
9215;DHT22;4642;51.364;6.788;2022-11-11T06:23:35;7.80;99.90
9215;DHT22;4642;51.364;6.788;2022-11-11T06:26:01;7.80;99.90
9215;DHT22;4642;51.364;6.788;2022-11-11T06:28:45;7.80;99.90
9215;DHT22;4642;51.364;6.788;2022-11-11T06:31:19;7.80;99.90
9215;DHT22;4642;51.364;6.788;2022-11-11T06:33:45;7.80;99.90
9215;DHT22;4642;51.364;6.788;2022-11-11T06:36:13;7.80;99.90
9215;DHT22;4642;51.364;6.788;2022-11-11T06:38:40;7.80;99.90
9215;DHT22;4642;51.364;6.788;2022-11-11T06:41:06;7.80;99.90
9215;DHT22;4642;51.364;6.788;2022-11-11T06:43:32;7.80;99.90
9215;DHT22;4642;51.364;6.788;2022-11-11T06:45:57;7.90;99.90
9215;DHT22;4642;51.364;6.788;2022-11-11T06:48:25;7.90;99.90
9215;DHT22;4642;51.364;6.788;2022-11-11T06:50:52;7.80;99.90
9215;DHT22;4642;51.364;6.788;2022-11-11T06:53:19;7.90;99.90
9215;DHT22;4642;51.364;6.788;2022-11-11T06:55:45;7.90;99.90
9215;DHT22;4642;51.364;6.788;2022-11-11T06:58:13;7.80;99.90
9215;DHT22;4642;51.364;6.788;2022-11-11T07:00:41;7.80;99.90
9215;DHT22;4642;51.364;6.788;2022-11-11T07:03:08;7.80;99.90
9215;DHT22;4642;51.364;6.788;2022-11-11T07:05:34;7.90;99.90
9215;DHT22;4642;51.364;6.788;2022-11-11T07:08:05;7.90;99.90
9215;DHT22;4642;51.364;6.788;2022-11-11T07:10:32;7.90;99.90
9215;DHT22;4642;51.364;6.788;2022-11-11T07:12:58;7.90;99.90
9215;DHT22;4642;51.364;6.788;2022-11-11T07:15:24;8.10;99.90
9215;DHT22;4642;51.364;6.788;2022-11-11T07:17:50;7.90;99.90
9215;DHT22;4642;51.364;6.788;2022-11-11T07:20:16;7.90;99.90
9215;DHT22;4642;51.364;6.788;2022-11-11T07:22:42;8.00;99.90
9215;DHT22;4642;51.364;6.788;2022-11-11T07:25:07;8.00;99.90
9215;DHT22;4642;51.364;6.788;2022-11-11T07:27:38;8.00;99.90
9215;DHT22;4642;51.364;6.788;2022-11-11T07:30:04;8.00;99.90
9215;DHT22;4642;51.364;6.788;2022-11-11T07:32:30;8.00;99.90
9215;DHT22;4642;51.364;6.788;2022-11-11T07:34:55;8.00;99.90
9215;DHT22;4642;51.364;6.788;2022-11-11T07:37:21;8.10;99.90
9215;DHT22;4642;51.364;6.788;2022-11-11T07:39:47;8.10;99.90
9215;DHT22;4642;51.364;6.788;2022-11-11T07:42:12;8.10;99.90
9215;DHT22;4642;51.364;6.788;2022-11-11T07:44:38;8.20;99.90
9215;DHT22;4642;51.364;6.788;2022-11-11T07:47:03;8.20;99.90
9215;DHT22;4642;51.364;6.788;2022-11-11T07:49:29;8.30;99.90
9215;DHT22;4642;51.364;6.788;2022-11-11T07:51:55;8.40;99.90
9215;DHT22;4642;51.364;6.788;2022-11-11T07:54:20;8.30;99.90
9215;DHT22;4642;51.364;6.788;2022-11-11T07:56:48;8.30;99.90
9215;DHT22;4642;51.364;6.788;2022-11-11T07:59:14;8.30;99.90
9215;DHT22;4642;51.364;6.788;2022-11-11T08:01:40;8.50;99.90
9215;DHT22;4642;51.364;6.788;2022-11-11T08:04:05;8.40;99.90
9215;DHT22;4642;51.364;6.788;2022-11-11T08:06:31;8.40;99.90
9215;DHT22;4642;51.364;6.788;2022-11-11T08:08:56;8.50;99.90
9215;DHT22;4642;51.364;6.788;2022-11-11T08:11:22;8.50;99.90
9215;DHT22;4642;51.364;6.788;2022-11-11T08:14:06;8.60;99.90
9215;DHT22;4642;51.364;6.788;2022-11-11T08:16:32;8.60;99.90
9215;DHT22;4642;51.364;6.788;2022-11-11T08:18:58;8.70;99.90
9215;DHT22;4642;51.364;6.788;2022-11-11T08:21:24;8.70;99.90
9215;DHT22;4642;51.364;6.788;2022-11-11T08:23:50;8.70;99.90
9215;DHT22;4642;51.364;6.788;2022-11-11T08:26:16;8.90;99.90
9215;DHT22;4642;51.364;6.788;2022-11-11T08:28:43;8.80;99.90
9215;DHT22;4642;51.364;6.788;2022-11-11T08:31:09;8.90;99.90
9215;DHT22;4642;51.364;6.788;2022-11-11T08:33:35;8.90;99.90
9215;DHT22;4642;51.364;6.788;2022-11-11T08:36:01;8.90;99.90
9215;DHT22;4642;51.364;6.788;2022-11-11T08:38:27;9.00;99.90
9215;DHT22;4642;51.364;6.788;2022-11-11T08:40:53;9.10;99.90
9215;DHT22;4642;51.364;6.788;2022-11-11T08:43:19;9.10;99.90
9215;DHT22;4642;51.364;6.788;2022-11-11T08:45:45;9.10;99.90
9215;DHT22;4642;51.364;6.788;2022-11-11T08:48:11;9.20;99.90
9215;DHT22;4642;51.364;6.788;2022-11-11T08:50:37;9.30;99.90
9215;DHT22;4642;51.364;6.788;2022-11-11T08:53:05;9.30;99.90
9215;DHT22;4642;51.364;6.788;2022-11-11T08:55:33;9.30;99.90
9215;DHT22;4642;51.364;6.788;2022-11-11T08:58:06;9.30;99.90
9215;DHT22;4642;51.364;6.788;2022-11-11T09:00:32;9.50;99.90
9215;DHT22;4642;51.364;6.788;2022-11-11T09:03:09;9.50;99.90
9215;DHT22;4642;51.364;6.788;2022-11-11T09:05:37;9.50;99.90
9215;DHT22;4642;51.364;6.788;2022-11-11T09:08:04;9.60;99.90
9215;DHT22;4642;51.364;6.788;2022-11-11T09:10:32;9.60;99.90
9215;DHT22;4642;51.364;6.788;2022-11-11T09:12:58;9.70;99.90
9215;DHT22;4642;51.364;6.788;2022-11-11T09:15:28;9.80;99.90
9215;DHT22;4642;51.364;6.788;2022-11-11T09:17:56;9.70;99.90
9215;DHT22;4642;51.364;6.788;2022-11-11T09:20:22;9.80;99.90
9215;DHT22;4642;51.364;6.788;2022-11-11T09:22:48;9.80;99.90
9215;DHT22;4642;51.364;6.788;2022-11-11T09:25:14;9.80;99.90
9215;DHT22;4642;51.364;6.788;2022-11-11T09:27:41;9.90;99.90
9215;DHT22;4642;51.364;6.788;2022-11-11T09:30:10;9.90;99.90
9215;DHT22;4642;51.364;6.788;2022-11-11T09:32:36;10.00;90.50
9215;DHT22;4642;51.364;6.788;2022-11-11T09:35:05;10.00;71.70
9215;DHT22;4642;51.364;6.788;2022-11-11T09:37:31;10.20;49.20
9215;DHT22;4642;51.364;6.788;2022-11-11T09:39:56;10.10;39.10
9215;DHT22;4642;51.364;6.788;2022-11-11T09:42:32;10.20;12.40
9215;DHT22;4642;51.364;6.788;2022-11-11T09:50:33;10.30;1.00
9215;DHT22;4642;51.364;6.788;2022-11-11T09:53:18;10.30;1.00
9215;DHT22;4642;51.364;6.788;2022-11-11T09:56:11;10.40;1.00
9215;DHT22;4642;51.364;6.788;2022-11-11T09:58:56;10.50;1.00
9215;DHT22;4642;51.364;6.788;2022-11-11T10:01:41;10.50;1.00
9215;DHT22;4642;51.364;6.788;2022-11-11T10:07:01;10.60;1.00
9215;DHT22;4642;51.364;6.788;2022-11-11T10:10:11;10.70;99.90
9215;DHT22;4642;51.364;6.788;2022-11-11T10:12:45;10.80;99.90
9215;DHT22;4642;51.364;6.788;2022-11-11T10:15:12;10.70;99.90
9215;DHT22;4642;51.364;6.788;2022-11-11T10:18:04;10.90;99.90
9215;DHT22;4642;51.364;6.788;2022-11-11T10:20:34;10.90;1.00
9215;DHT22;4642;51.364;6.788;2022-11-11T10:23:12;11.00;1.00
9215;DHT22;4642;51.364;6.788;2022-11-11T10:25:45;11.40;1.00
9215;DHT22;4642;51.364;6.788;2022-11-11T10:28:19;11.20;1.00
9215;DHT22;4642;51.364;6.788;2022-11-11T10:30:46;11.20;99.90
9215;DHT22;4642;51.364;6.788;2022-11-11T10:33:27;11.30;1.00
9215;DHT22;4642;51.364;6.788;2022-11-11T10:35:57;11.30;99.90
9215;DHT22;4642;51.364;6.788;2022-11-11T10:38:49;11.40;23.10
9215;DHT22;4642;51.364;6.788;2022-11-11T10:41:46;11.40;99.90
9215;DHT22;4642;51.364;6.788;2022-11-11T10:44:32;11.50;76.30
9215;DHT22;4642;51.364;6.788;2022-11-11T10:47:02;11.60;1.00
9215;DHT22;4642;51.364;6.788;2022-11-11T10:49:32;12.00;99.90
9215;DHT22;4642;51.364;6.788;2022-11-11T10:52:13;11.80;99.90
9215;DHT22;4642;51.364;6.788;2022-11-11T10:55:00;11.80;93.10
9215;DHT22;4642;51.364;6.788;2022-11-11T10:57:37;11.80;1.00
9215;DHT22;4642;51.364;6.788;2022-11-11T11:00:09;11.90;1.00
9215;DHT22;4642;51.364;6.788;2022-11-11T11:05:30;12.10;1.00
9215;DHT22;4642;51.364;6.788;2022-11-11T11:08:07;12.10;1.00
9215;DHT22;4642;51.364;6.788;2022-11-11T11:10:52;12.30;1.00
9215;DHT22;4642;51.364;6.788;2022-11-11T11:13:39;12.20;1.00
9215;DHT22;4642;51.364;6.788;2022-11-11T11:16:13;12.30;1.00
9215;DHT22;4642;51.364;6.788;2022-11-11T11:18:40;12.40;1.00
9215;DHT22;4642;51.364;6.788;2022-11-11T11:21:06;12.40;1.00
9215;DHT22;4642;51.364;6.788;2022-11-11T11:23:43;12.50;1.00
9215;DHT22;4642;51.364;6.788;2022-11-11T11:26:11;12.60;99.90
9215;DHT22;4642;51.364;6.788;2022-11-11T11:28:57;12.60;99.90
9215;DHT22;4642;51.364;6.788;2022-11-11T11:31:46;12.70;99.90
9215;DHT22;4642;51.364;6.788;2022-11-11T11:34:12;12.70;99.90
9215;DHT22;4642;51.364;6.788;2022-11-11T11:36:58;12.70;99.90
9215;DHT22;4642;51.364;6.788;2022-11-11T11:42:38;12.70;99.90
9215;DHT22;4642;51.364;6.788;2022-11-11T11:45:24;12.80;99.90
9215;DHT22;4642;51.364;6.788;2022-11-11T11:48:31;12.80;99.90
9215;DHT22;4642;51.364;6.788;2022-11-11T11:51:32;12.80;99.90
9215;DHT22;4642;51.364;6.788;2022-11-11T11:57:01;12.80;99.90
9215;DHT22;4642;51.364;6.788;2022-11-11T12:00:12;12.80;99.90
9215;DHT22;4642;51.364;6.788;2022-11-11T12:08:41;12.90;99.90
9215;DHT22;4642;51.364;6.788;2022-11-11T12:14:14;13.00;98.50
9215;DHT22;4642;51.364;6.788;2022-11-11T12:16:50;13.00;99.90
9215;DHT22;4642;51.364;6.788;2022-11-11T12:19:33;13.00;97.10
9215;DHT22;4642;51.364;6.788;2022-11-11T12:27:34;13.00;16.90
9215;DHT22;4642;51.364;6.788;2022-11-11T12:30:09;13.10;1.00
9215;DHT22;4642;51.364;6.788;2022-11-11T12:38:34;12.90;1.00
9215;DHT22;4642;51.364;6.788;2022-11-11T12:44:10;13.00;1.00
9215;DHT22;4642;51.364;6.788;2022-11-11T12:46:56;13.00;1.00
9215;DHT22;4642;51.364;6.788;2022-11-11T12:49:52;13.00;1.00
9215;DHT22;4642;51.364;6.788;2022-11-11T13:07:26;13.00;1.00
9215;DHT22;4642;51.364;6.788;2022-11-11T13:10:47;12.80;1.00
9215;DHT22;4642;51.364;6.788;2022-11-11T13:15:48;13.00;1.00
9215;DHT22;4642;51.364;6.788;2022-11-11T13:18:18;13.20;1.00
9215;DHT22;4642;51.364;6.788;2022-11-11T13:23:22;13.10;1.00
9215;DHT22;4642;51.364;6.788;2022-11-11T13:25:51;13.10;1.00
9215;DHT22;4642;51.364;6.788;2022-11-11T13:28:42;13.10;1.00
9215;DHT22;4642;51.364;6.788;2022-11-11T13:31:32;13.00;1.00
9215;DHT22;4642;51.364;6.788;2022-11-11T13:34:08;13.10;1.00
9215;DHT22;4642;51.364;6.788;2022-11-11T13:36:50;13.10;8.30
9215;DHT22;4642;51.364;6.788;2022-11-11T13:39:29;13.20;28.10
9215;DHT22;4642;51.364;6.788;2022-11-11T13:41:57;13.10;1.00
9215;DHT22;4642;51.364;6.788;2022-11-11T13:47:02;13.20;1.00
9215;DHT22;4642;51.364;6.788;2022-11-11T13:49:36;13.20;1.00
9215;DHT22;4642;51.364;6.788;2022-11-11T13:52:21;13.30;1.60
9215;DHT22;4642;51.364;6.788;2022-11-11T13:54:59;13.10;50.20
9215;DHT22;4642;51.364;6.788;2022-11-11T13:57:27;13.00;61.90
9215;DHT22;4642;51.364;6.788;2022-11-11T14:00:16;13.10;77.20
9215;DHT22;4642;51.364;6.788;2022-11-11T14:05:45;13.10;36.50
9215;DHT22;4642;51.364;6.788;2022-11-11T14:22:32;13.20;1.00
9215;DHT22;4642;51.364;6.788;2022-11-11T14:25:20;13.20;1.00
9215;DHT22;4642;51.364;6.788;2022-11-11T14:27:49;13.20;1.00
9215;DHT22;4642;51.364;6.788;2022-11-11T14:30:37;13.20;18.00
9215;DHT22;4642;51.364;6.788;2022-11-11T14:33:33;13.20;83.40
9215;DHT22;4642;51.364;6.788;2022-11-11T14:36:27;13.10;99.90
9215;DHT22;4642;51.364;6.788;2022-11-11T14:41:44;13.10;99.90
9215;DHT22;4642;51.364;6.788;2022-11-11T14:52:34;13.00;1.00
9215;DHT22;4642;51.364;6.788;2022-11-11T14:57:40;12.90;79.20
9215;DHT22;4642;51.364;6.788;2022-11-11T15:00:19;12.80;99.90
9215;DHT22;4642;51.364;6.788;2022-11-11T15:10:55;12.60;54.50
9215;DHT22;4642;51.364;6.788;2022-11-11T15:13:48;12.50;99.90
9215;DHT22;4642;51.364;6.788;2022-11-11T15:19:11;12.40;1.00
9215;DHT22;4642;51.364;6.788;2022-11-11T15:24:42;12.20;1.00
9215;DHT22;4642;51.364;6.788;2022-11-11T15:30:13;12.10;1.00
9215;DHT22;4642;51.364;6.788;2022-11-11T15:35:25;11.90;99.90
9215;DHT22;4642;51.364;6.788;2022-11-11T15:37:53;11.80;1.00
9215;DHT22;4642;51.364;6.788;2022-11-11T15:40:25;11.70;1.00
9215;DHT22;4642;51.364;6.788;2022-11-11T15:42:51;11.60;1.00
9215;DHT22;4642;51.364;6.788;2022-11-11T15:47:43;11.50;99.90
9215;DHT22;4642;51.364;6.788;2022-11-11T15:52:57;11.30;99.90
9215;DHT22;4642;51.364;6.788;2022-11-11T15:57:53;11.10;1.00
9215;DHT22;4642;51.364;6.788;2022-11-11T16:00:26;11.10;1.00
9215;DHT22;4642;51.364;6.788;2022-11-11T16:02:53;11.00;1.00
9215;DHT22;4642;51.364;6.788;2022-11-11T16:05:27;10.90;1.00
9215;DHT22;4642;51.364;6.788;2022-11-11T16:07:58;10.80;1.00
9215;DHT22;4642;51.364;6.788;2022-11-11T16:10:36;10.80;1.00
9215;DHT22;4642;51.364;6.788;2022-11-11T16:13:11;10.70;1.00
9215;DHT22;4642;51.364;6.788;2022-11-11T16:15:46;10.60;1.00
9215;DHT22;4642;51.364;6.788;2022-11-11T16:18:23;10.50;1.00
9215;DHT22;4642;51.364;6.788;2022-11-11T16:20:56;10.40;1.00
9215;DHT22;4642;51.364;6.788;2022-11-11T16:23:23;10.30;1.00
9215;DHT22;4642;51.364;6.788;2022-11-11T16:25:50;10.30;1.00
9215;DHT22;4642;51.364;6.788;2022-11-11T16:28:16;10.20;1.00
9215;DHT22;4642;51.364;6.788;2022-11-11T16:30:42;10.10;1.00
9215;DHT22;4642;51.364;6.788;2022-11-11T16:35:53;9.90;90.70
9215;DHT22;4642;51.364;6.788;2022-11-11T16:38:31;9.80;71.70
9215;DHT22;4642;51.364;6.788;2022-11-11T16:40:57;9.80;99.90
9215;DHT22;4642;51.364;6.788;2022-11-11T16:43:25;9.70;99.90
9215;DHT22;4642;51.364;6.788;2022-11-11T16:46:07;9.60;99.90
9215;DHT22;4642;51.364;6.788;2022-11-11T16:51:08;9.50;99.90
9215;DHT22;4642;51.364;6.788;2022-11-11T16:53:43;9.40;99.90
9215;DHT22;4642;51.364;6.788;2022-11-11T16:56:25;9.30;99.90
9215;DHT22;4642;51.364;6.788;2022-11-11T16:59:02;9.30;99.90
9215;DHT22;4642;51.364;6.788;2022-11-11T17:01:28;9.20;99.90
9215;DHT22;4642;51.364;6.788;2022-11-11T17:03:56;9.10;99.90
9215;DHT22;4642;51.364;6.788;2022-11-11T17:06:48;9.10;99.90
9215;DHT22;4642;51.364;6.788;2022-11-11T17:09:35;9.00;99.90
9215;DHT22;4642;51.364;6.788;2022-11-11T17:12:01;8.90;99.90
9215;DHT22;4642;51.364;6.788;2022-11-11T17:14:29;8.80;99.90
9215;DHT22;4642;51.364;6.788;2022-11-11T17:16:55;8.70;99.90
9215;DHT22;4642;51.364;6.788;2022-11-11T17:19:21;8.70;99.90
9215;DHT22;4642;51.364;6.788;2022-11-11T17:21:47;8.60;99.90
9215;DHT22;4642;51.364;6.788;2022-11-11T17:24:13;8.50;99.90
9215;DHT22;4642;51.364;6.788;2022-11-11T17:26:39;8.50;99.90
9215;DHT22;4642;51.364;6.788;2022-11-11T17:29:06;8.40;99.90
9215;DHT22;4642;51.364;6.788;2022-11-11T17:31:31;8.40;99.90
9215;DHT22;4642;51.364;6.788;2022-11-11T17:33:57;8.30;99.90
9215;DHT22;4642;51.364;6.788;2022-11-11T17:36:22;8.30;99.90
9215;DHT22;4642;51.364;6.788;2022-11-11T17:38:48;8.30;99.90
9215;DHT22;4642;51.364;6.788;2022-11-11T17:41:14;8.20;99.90
9215;DHT22;4642;51.364;6.788;2022-11-11T17:43:39;8.20;99.90
9215;DHT22;4642;51.364;6.788;2022-11-11T17:46:05;8.10;99.90
9215;DHT22;4642;51.364;6.788;2022-11-11T17:48:31;8.00;99.90
9215;DHT22;4642;51.364;6.788;2022-11-11T17:50:56;8.00;99.90
9215;DHT22;4642;51.364;6.788;2022-11-11T17:53:23;8.00;99.90
9215;DHT22;4642;51.364;6.788;2022-11-11T17:55:48;8.00;99.90
9215;DHT22;4642;51.364;6.788;2022-11-11T17:58:15;7.90;99.90
9215;DHT22;4642;51.364;6.788;2022-11-11T18:00:41;7.90;99.90
9215;DHT22;4642;51.364;6.788;2022-11-11T18:03:07;7.90;99.90
9215;DHT22;4642;51.364;6.788;2022-11-11T18:05:33;7.80;99.90
9215;DHT22;4642;51.364;6.788;2022-11-11T18:07:58;7.80;99.90
9215;DHT22;4642;51.364;6.788;2022-11-11T18:10:24;7.70;99.90
9215;DHT22;4642;51.364;6.788;2022-11-11T18:12:50;7.70;99.90
9215;DHT22;4642;51.364;6.788;2022-11-11T18:15:15;7.70;99.90
9215;DHT22;4642;51.364;6.788;2022-11-11T18:17:41;7.70;99.90
9215;DHT22;4642;51.364;6.788;2022-11-11T18:20:07;7.70;99.90
9215;DHT22;4642;51.364;6.788;2022-11-11T18:22:32;7.60;99.90
9215;DHT22;4642;51.364;6.788;2022-11-11T18:24:58;7.60;99.90
9215;DHT22;4642;51.364;6.788;2022-11-11T18:27:23;7.60;99.90
9215;DHT22;4642;51.364;6.788;2022-11-11T18:29:49;7.50;99.90
9215;DHT22;4642;51.364;6.788;2022-11-11T18:32:15;7.50;99.90
9215;DHT22;4642;51.364;6.788;2022-11-11T18:34:40;7.40;99.90
9215;DHT22;4642;51.364;6.788;2022-11-11T18:37:06;7.40;99.90
9215;DHT22;4642;51.364;6.788;2022-11-11T18:39:31;7.40;99.90
9215;DHT22;4642;51.364;6.788;2022-11-11T18:41:57;7.30;99.90
9215;DHT22;4642;51.364;6.788;2022-11-11T18:44:22;7.30;99.90
9215;DHT22;4642;51.364;6.788;2022-11-11T18:46:48;7.30;99.90
9215;DHT22;4642;51.364;6.788;2022-11-11T18:49:14;7.20;99.90
9215;DHT22;4642;51.364;6.788;2022-11-11T18:51:40;7.30;99.90
9215;DHT22;4642;51.364;6.788;2022-11-11T18:54:06;7.30;99.90
9215;DHT22;4642;51.364;6.788;2022-11-11T18:56:35;7.20;99.90
9215;DHT22;4642;51.364;6.788;2022-11-11T18:59:01;7.20;99.90
9215;DHT22;4642;51.364;6.788;2022-11-11T19:01:29;7.10;99.90
9215;DHT22;4642;51.364;6.788;2022-11-11T19:03:57;7.10;99.90